sensor_id;sensor_type;location;lat;lon;timestamp;P1;durP1;ratioP1;P2;durP2;ratioP2
22318;SDS011;11327;52.334;9.506;2024-03-23T00:51:51;17.05;;;6.50;;
22318;SDS011;11327;52.334;9.506;2024-03-23T00:55:12;16.73;;;6.22;;
22318;SDS011;11327;52.334;9.506;2024-03-23T00:58:32;13.58;;;6.40;;
22318;SDS011;11327;52.334;9.506;2024-03-23T01:01:54;15.25;;;6.35;;
22318;SDS011;11327;52.334;9.506;2024-03-23T01:05:15;14.47;;;6.67;;
22318;SDS011;11327;52.334;9.506;2024-03-23T01:08:35;11.73;;;6.08;;
22318;SDS011;11327;52.334;9.506;2024-03-23T01:11:56;15.38;;;6.67;;
22318;SDS011;11327;52.334;9.506;2024-03-23T01:15:17;15.38;;;6.45;;
22318;SDS011;11327;52.334;9.506;2024-03-23T01:18:38;14.05;;;6.12;;
22318;SDS011;11327;52.334;9.506;2024-03-23T01:21:58;13.72;;;6.58;;
22318;SDS011;11327;52.334;9.506;2024-03-23T01:25:19;13.85;;;6.37;;
22318;SDS011;11327;52.334;9.506;2024-03-23T01:28:40;14.05;;;6.40;;
22318;SDS011;11327;52.334;9.506;2024-03-23T01:32:01;17.05;;;6.45;;
22318;SDS011;11327;52.334;9.506;2024-03-23T01:35:21;15.80;;;6.67;;
22318;SDS011;11327;52.334;9.506;2024-03-23T01:38:42;14.33;;;6.67;;
22318;SDS011;11327;52.334;9.506;2024-03-23T01:42:03;17.07;;;7.47;;
22318;SDS011;11327;52.334;9.506;2024-03-23T01:45:24;15.35;;;7.40;;
22318;SDS011;11327;52.334;9.506;2024-03-23T01:48:45;15.95;;;6.47;;
22318;SDS011;11327;52.334;9.506;2024-03-23T01:52:06;15.00;;;6.67;;
22318;SDS011;11327;52.334;9.506;2024-03-23T01:55:27;14.58;;;6.53;;
22318;SDS011;11327;52.334;9.506;2024-03-23T01:58:49;15.40;;;7.28;;
22318;SDS011;11327;52.334;9.506;2024-03-23T02:02:10;13.43;;;6.22;;
22318;SDS011;11327;52.334;9.506;2024-03-23T02:05:31;17.05;;;6.47;;
22318;SDS011;11327;52.334;9.506;2024-03-23T02:08:52;15.72;;;6.55;;
22318;SDS011;11327;52.334;9.506;2024-03-23T02:12:14;12.37;;;6.00;;
22318;SDS011;11327;52.334;9.506;2024-03-23T02:15:35;18.75;;;6.80;;
22318;SDS011;11327;52.334;9.506;2024-03-23T02:18:56;17.25;;;6.78;;
22318;SDS011;11327;52.334;9.506;2024-03-23T02:22:17;13.55;;;6.42;;
22318;SDS011;11327;52.334;9.506;2024-03-23T02:25:37;15.35;;;6.25;;
22318;SDS011;11327;52.334;9.506;2024-03-23T02:28:58;14.13;;;5.72;;
22318;SDS011;11327;52.334;9.506;2024-03-23T02:32:19;15.45;;;6.62;;
22318;SDS011;11327;52.334;9.506;2024-03-23T02:35:39;14.03;;;6.53;;
22318;SDS011;11327;52.334;9.506;2024-03-23T02:39:00;14.90;;;6.37;;
22318;SDS011;11327;52.334;9.506;2024-03-23T02:42:21;14.87;;;6.03;;
22318;SDS011;11327;52.334;9.506;2024-03-23T02:45:42;16.35;;;7.50;;
22318;SDS011;11327;52.334;9.506;2024-03-23T02:49:02;15.00;;;6.80;;
22318;SDS011;11327;52.334;9.506;2024-03-23T02:52:24;16.00;;;7.40;;
22318;SDS011;11327;52.334;9.506;2024-03-23T02:55:45;15.00;;;6.72;;
22318;SDS011;11327;52.334;9.506;2024-03-23T02:59:06;15.60;;;6.62;;
22318;SDS011;11327;52.334;9.506;2024-03-23T03:02:27;15.05;;;6.65;;
22318;SDS011;11327;52.334;9.506;2024-03-23T03:05:47;19.07;;;6.83;;
22318;SDS011;11327;52.334;9.506;2024-03-23T03:09:08;11.88;;;6.17;;
22318;SDS011;11327;52.334;9.506;2024-03-23T03:12:29;14.07;;;6.20;;
22318;SDS011;11327;52.334;9.506;2024-03-23T03:15:50;13.10;;;6.10;;
22318;SDS011;11327;52.334;9.506;2024-03-23T03:19:10;12.13;;;6.17;;
22318;SDS011;11327;52.334;9.506;2024-03-23T03:22:32;11.90;;;5.62;;
22318;SDS011;11327;52.334;9.506;2024-03-23T03:25:52;11.22;;;5.28;;
22318;SDS011;11327;52.334;9.506;2024-03-23T03:29:13;12.63;;;5.72;;
22318;SDS011;11327;52.334;9.506;2024-03-23T03:32:34;13.55;;;5.53;;
22318;SDS011;11327;52.334;9.506;2024-03-23T03:35:55;13.05;;;5.70;;
22318;SDS011;11327;52.334;9.506;2024-03-23T03:39:16;13.10;;;6.40;;
22318;SDS011;11327;52.334;9.506;2024-03-23T03:42:37;11.83;;;5.70;;
22318;SDS011;11327;52.334;9.506;2024-03-23T03:45:58;15.30;;;6.15;;
22318;SDS011;11327;52.334;9.506;2024-03-23T03:49:21;16.32;;;6.30;;
22318;SDS011;11327;52.334;9.506;2024-03-23T03:52:42;18.80;;;6.53;;
22318;SDS011;11327;52.334;9.506;2024-03-23T03:56:03;16.40;;;6.78;;
22318;SDS011;11327;52.334;9.506;2024-03-23T03:59:24;14.05;;;6.33;;
22318;SDS011;11327;52.334;9.506;2024-03-23T04:02:45;14.05;;;6.60;;
22318;SDS011;11327;52.334;9.506;2024-03-23T04:06:05;20.62;;;7.22;;
22318;SDS011;11327;52.334;9.506;2024-03-23T04:09:26;13.95;;;6.97;;
22318;SDS011;11327;52.334;9.506;2024-03-23T04:12:47;15.65;;;7.03;;
22318;SDS011;11327;52.334;9.506;2024-03-23T04:16:08;17.42;;;7.22;;
22318;SDS011;11327;52.334;9.506;2024-03-23T04:19:29;14.70;;;6.33;;
22318;SDS011;11327;52.334;9.506;2024-03-23T04:22:50;15.83;;;5.70;;
22318;SDS011;11327;52.334;9.506;2024-03-23T04:26:11;15.78;;;5.83;;
22318;SDS011;11327;52.334;9.506;2024-03-23T04:29:31;15.60;;;5.45;;
22318;SDS011;11327;52.334;9.506;2024-03-23T04:32:52;14.60;;;5.72;;
22318;SDS011;11327;52.334;9.506;2024-03-23T04:36:13;16.52;;;5.65;;
22318;SDS011;11327;52.334;9.506;2024-03-23T04:39:34;14.68;;;5.35;;
22318;SDS011;11327;52.334;9.506;2024-03-23T04:42:56;15.45;;;4.83;;
22318;SDS011;11327;52.334;9.506;2024-03-23T04:46:17;13.28;;;4.97;;
22318;SDS011;11327;52.334;9.506;2024-03-23T04:49:37;14.83;;;4.50;;
22318;SDS011;11327;52.334;9.506;2024-03-23T04:52:58;15.80;;;4.72;;
22318;SDS011;11327;52.334;9.506;2024-03-23T04:56:19;12.40;;;4.75;;
22318;SDS011;11327;52.334;9.506;2024-03-23T04:59:40;15.23;;;4.90;;
22318;SDS011;11327;52.334;9.506;2024-03-23T05:03:01;16.48;;;5.20;;
22318;SDS011;11327;52.334;9.506;2024-03-23T05:06:21;15.10;;;5.30;;
22318;SDS011;11327;52.334;9.506;2024-03-23T05:09:42;17.57;;;5.40;;
22318;SDS011;11327;52.334;9.506;2024-03-23T05:13:03;17.20;;;5.22;;
22318;SDS011;11327;52.334;9.506;2024-03-23T05:16:24;15.58;;;4.37;;
22318;SDS011;11327;52.334;9.506;2024-03-23T05:19:45;13.55;;;4.65;;
22318;SDS011;11327;52.334;9.506;2024-03-23T05:23:06;14.03;;;4.12;;
22318;SDS011;11327;52.334;9.506;2024-03-23T05:26:26;13.80;;;4.60;;
22318;SDS011;11327;52.334;9.506;2024-03-23T05:29:47;12.93;;;4.33;;
22318;SDS011;11327;52.334;9.506;2024-03-23T05:33:09;13.32;;;4.25;;
22318;SDS011;11327;52.334;9.506;2024-03-23T05:36:29;10.78;;;4.25;;
22318;SDS011;11327;52.334;9.506;2024-03-23T05:39:51;13.22;;;3.87;;
22318;SDS011;11327;52.334;9.506;2024-03-23T05:43:11;11.05;;;3.52;;
22318;SDS011;11327;52.334;9.506;2024-03-23T05:46:32;11.88;;;3.40;;
22318;SDS011;11327;52.334;9.506;2024-03-23T05:49:53;10.72;;;3.00;;
22318;SDS011;11327;52.334;9.506;2024-03-23T05:53:14;14.03;;;3.90;;
22318;SDS011;11327;52.334;9.506;2024-03-23T05:56:36;12.93;;;4.35;;
22318;SDS011;11327;52.334;9.506;2024-03-23T05:59:56;11.50;;;4.25;;
22318;SDS011;11327;52.334;9.506;2024-03-23T06:03:17;13.10;;;4.55;;
22318;SDS011;11327;52.334;9.506;2024-03-23T06:06:38;13.78;;;4.53;;
22318;SDS011;11327;52.334;9.506;2024-03-23T06:10:00;13.72;;;4.45;;
22318;SDS011;11327;52.334;9.506;2024-03-23T06:13:20;12.10;;;4.25;;
22318;SDS011;11327;52.334;9.506;2024-03-23T06:16:43;13.98;;;4.80;;
22318;SDS011;11327;52.334;9.506;2024-03-23T06:20:04;14.75;;;5.40;;
22318;SDS011;11327;52.334;9.506;2024-03-23T06:23:28;14.03;;;5.10;;
22318;SDS011;11327;52.334;9.506;2024-03-23T06:26:49;14.13;;;5.33;;
22318;SDS011;11327;52.334;9.506;2024-03-23T06:30:10;14.85;;;5.92;;
22318;SDS011;11327;52.334;9.506;2024-03-23T06:33:32;19.17;;;7.20;;
22318;SDS011;11327;52.334;9.506;2024-03-23T06:36:53;21.10;;;6.87;;
22318;SDS011;11327;52.334;9.506;2024-03-23T06:40:14;21.55;;;7.55;;
22318;SDS011;11327;52.334;9.506;2024-03-23T06:43:35;18.85;;;7.33;;
22318;SDS011;11327;52.334;9.506;2024-03-23T06:46:56;19.95;;;6.80;;
22318;SDS011;11327;52.334;9.506;2024-03-23T06:50:17;23.65;;;8.05;;
22318;SDS011;11327;52.334;9.506;2024-03-23T06:53:38;26.12;;;7.83;;
22318;SDS011;11327;52.334;9.506;2024-03-23T06:56:59;25.20;;;8.00;;
22318;SDS011;11327;52.334;9.506;2024-03-23T07:00:19;27.07;;;8.55;;
22318;SDS011;11327;52.334;9.506;2024-03-23T07:03:42;25.55;;;8.53;;
22318;SDS011;11327;52.334;9.506;2024-03-23T07:07:03;23.90;;;7.97;;
22318;SDS011;11327;52.334;9.506;2024-03-23T07:10:24;26.55;;;9.50;;
22318;SDS011;11327;52.334;9.506;2024-03-23T07:13:45;27.10;;;9.43;;
22318;SDS011;11327;52.334;9.506;2024-03-23T07:17:06;27.77;;;9.85;;
22318;SDS011;11327;52.334;9.506;2024-03-23T07:20:26;23.30;;;9.50;;
22318;SDS011;11327;52.334;9.506;2024-03-23T07:23:47;27.35;;;10.32;;
22318;SDS011;11327;52.334;9.506;2024-03-23T07:27:08;31.15;;;11.05;;
22318;SDS011;11327;52.334;9.506;2024-03-23T07:30:30;32.45;;;11.85;;
22318;SDS011;11327;52.334;9.506;2024-03-23T07:33:51;30.50;;;11.93;;
22318;SDS011;11327;52.334;9.506;2024-03-23T07:37:11;30.25;;;11.65;;
22318;SDS011;11327;52.334;9.506;2024-03-23T07:40:32;35.78;;;11.45;;
22318;SDS011;11327;52.334;9.506;2024-03-23T07:43:53;30.37;;;10.38;;
22318;SDS011;11327;52.334;9.506;2024-03-23T07:47:14;29.80;;;10.90;;
22318;SDS011;11327;52.334;9.506;2024-03-23T07:50:35;25.72;;;10.05;;
22318;SDS011;11327;52.334;9.506;2024-03-23T07:53:55;26.17;;;9.28;;
22318;SDS011;11327;52.334;9.506;2024-03-23T07:57:16;27.17;;;10.03;;
22318;SDS011;11327;52.334;9.506;2024-03-23T08:00:37;27.00;;;9.28;;
22318;SDS011;11327;52.334;9.506;2024-03-23T08:03:58;23.12;;;8.93;;
22318;SDS011;11327;52.334;9.506;2024-03-23T08:07:19;29.23;;;8.70;;
22318;SDS011;11327;52.334;9.506;2024-03-23T08:10:49;22.70;;;8.20;;
22318;SDS011;11327;52.334;9.506;2024-03-23T08:14:11;23.62;;;8.60;;
22318;SDS011;11327;52.334;9.506;2024-03-23T08:17:32;24.30;;;8.38;;
22318;SDS011;11327;52.334;9.506;2024-03-23T08:21:00;17.95;;;7.95;;
22318;SDS011;11327;52.334;9.506;2024-03-23T08:24:23;20.77;;;7.97;;
22318;SDS011;11327;52.334;9.506;2024-03-23T08:27:44;25.37;;;8.50;;
22318;SDS011;11327;52.334;9.506;2024-03-23T08:31:06;21.05;;;7.42;;
22318;SDS011;11327;52.334;9.506;2024-03-23T08:34:29;22.55;;;7.50;;
22318;SDS011;11327;52.334;9.506;2024-03-23T08:37:49;21.42;;;8.05;;
22318;SDS011;11327;52.334;9.506;2024-03-23T08:41:10;23.20;;;8.55;;
22318;SDS011;11327;52.334;9.506;2024-03-23T08:44:31;22.82;;;8.03;;
22318;SDS011;11327;52.334;9.506;2024-03-23T08:47:52;22.45;;;9.15;;
22318;SDS011;11327;52.334;9.506;2024-03-23T08:51:14;17.25;;;8.05;;
22318;SDS011;11327;52.334;9.506;2024-03-23T08:54:36;23.07;;;8.28;;
22318;SDS011;11327;52.334;9.506;2024-03-23T08:57:56;20.72;;;7.95;;
22318;SDS011;11327;52.334;9.506;2024-03-23T09:01:17;20.57;;;8.65;;
22318;SDS011;11327;52.334;9.506;2024-03-23T09:04:38;25.55;;;8.43;;
22318;SDS011;11327;52.334;9.506;2024-03-23T09:07:59;18.85;;;7.60;;
22318;SDS011;11327;52.334;9.506;2024-03-23T09:11:19;23.62;;;8.00;;
22318;SDS011;11327;52.334;9.506;2024-03-23T09:14:40;17.05;;;7.10;;
22318;SDS011;11327;52.334;9.506;2024-03-23T09:18:01;23.27;;;7.30;;
22318;SDS011;11327;52.334;9.506;2024-03-23T09:21:23;19.02;;;6.85;;
22318;SDS011;11327;52.334;9.506;2024-03-23T09:24:43;10.38;;;4.62;;
22318;SDS011;11327;52.334;9.506;2024-03-23T09:28:07;11.25;;;4.60;;
22318;SDS011;11327;52.334;9.506;2024-03-23T09:31:30;14.55;;;4.20;;
22318;SDS011;11327;52.334;9.506;2024-03-23T09:34:53;28.98;;;5.70;;
22318;SDS011;11327;52.334;9.506;2024-03-23T09:38:14;12.58;;;4.33;;
22318;SDS011;11327;52.334;9.506;2024-03-23T09:41:35;12.50;;;3.50;;
22318;SDS011;11327;52.334;9.506;2024-03-23T09:44:57;11.85;;;3.62;;
22318;SDS011;11327;52.334;9.506;2024-03-23T09:48:18;11.85;;;3.65;;
22318;SDS011;11327;52.334;9.506;2024-03-23T09:51:39;11.05;;;3.10;;
22318;SDS011;11327;52.334;9.506;2024-03-23T09:55:00;14.07;;;3.20;;
22318;SDS011;11327;52.334;9.506;2024-03-23T09:58:23;9.93;;;2.90;;
22318;SDS011;11327;52.334;9.506;2024-03-23T10:01:43;9.33;;;3.70;;
22318;SDS011;11327;52.334;9.506;2024-03-23T10:05:05;12.88;;;3.22;;
22318;SDS011;11327;52.334;9.506;2024-03-23T10:08:32;16.07;;;3.70;;
22318;SDS011;11327;52.334;9.506;2024-03-23T10:11:53;10.72;;;3.15;;
22318;SDS011;11327;52.334;9.506;2024-03-23T10:15:22;12.85;;;3.20;;
22318;SDS011;11327;52.334;9.506;2024-03-23T10:18:44;7.57;;;2.83;;
22318;SDS011;11327;52.334;9.506;2024-03-23T10:22:06;17.65;;;3.83;;
22318;SDS011;11327;52.334;9.506;2024-03-23T10:25:27;10.03;;;3.60;;
22318;SDS011;11327;52.334;9.506;2024-03-23T10:28:51;9.95;;;2.77;;
22318;SDS011;11327;52.334;9.506;2024-03-23T10:32:20;6.15;;;2.55;;
22318;SDS011;11327;52.334;9.506;2024-03-23T10:35:41;4.78;;;1.37;;
22318;SDS011;11327;52.334;9.506;2024-03-23T10:39:02;7.10;;;2.05;;
22318;SDS011;11327;52.334;9.506;2024-03-23T10:42:25;7.80;;;1.82;;
22318;SDS011;11327;52.334;9.506;2024-03-23T10:45:47;4.58;;;1.57;;
22318;SDS011;11327;52.334;9.506;2024-03-23T10:49:10;8.28;;;2.62;;
22318;SDS011;11327;52.334;9.506;2024-03-23T10:52:32;5.55;;;2.65;;
22318;SDS011;11327;52.334;9.506;2024-03-23T10:55:54;9.63;;;3.10;;
22318;SDS011;11327;52.334;9.506;2024-03-23T10:59:16;6.70;;;2.83;;
22318;SDS011;11327;52.334;9.506;2024-03-23T11:02:38;6.70;;;2.52;;
22318;SDS011;11327;52.334;9.506;2024-03-23T11:05:59;9.55;;;3.10;;
22318;SDS011;11327;52.334;9.506;2024-03-23T11:13:22;9.98;;;3.35;;
22318;SDS011;11327;52.334;9.506;2024-03-23T11:16:44;5.40;;;2.90;;
22318;SDS011;11327;52.334;9.506;2024-03-23T11:20:05;5.53;;;3.00;;
22318;SDS011;11327;52.334;9.506;2024-03-23T11:23:27;6.60;;;3.35;;
22318;SDS011;11327;52.334;9.506;2024-03-23T11:26:48;8.78;;;3.75;;
22318;SDS011;11327;52.334;9.506;2024-03-23T11:30:10;8.95;;;3.70;;
22318;SDS011;11327;52.334;9.506;2024-03-23T11:33:34;9.08;;;3.72;;
22318;SDS011;11327;52.334;9.506;2024-03-23T11:37:04;9.13;;;3.87;;
22318;SDS011;11327;52.334;9.506;2024-03-23T11:40:25;5.03;;;2.10;;
22318;SDS011;11327;52.334;9.506;2024-03-23T11:43:46;4.42;;;1.80;;
22318;SDS011;11327;52.334;9.506;2024-03-23T11:47:07;4.15;;;1.80;;
22318;SDS011;11327;52.334;9.506;2024-03-23T11:50:31;4.67;;;1.85;;
22318;SDS011;11327;52.334;9.506;2024-03-23T11:53:52;9.10;;;2.22;;
22318;SDS011;11327;52.334;9.506;2024-03-23T11:57:13;8.90;;;2.30;;
22318;SDS011;11327;52.334;9.506;2024-03-23T12:00:34;5.33;;;1.50;;
22318;SDS011;11327;52.334;9.506;2024-03-23T12:03:55;5.90;;;1.87;;
22318;SDS011;11327;52.334;9.506;2024-03-23T12:07:19;2.67;;;1.40;;
22318;SDS011;11327;52.334;9.506;2024-03-23T12:10:44;4.85;;;1.80;;
22318;SDS011;11327;52.334;9.506;2024-03-23T12:14:07;4.65;;;1.90;;
22318;SDS011;11327;52.334;9.506;2024-03-23T12:17:28;7.12;;;2.33;;
22318;SDS011;11327;52.334;9.506;2024-03-23T12:20:49;6.35;;;2.15;;
22318;SDS011;11327;52.334;9.506;2024-03-23T12:24:10;5.20;;;2.12;;
22318;SDS011;11327;52.334;9.506;2024-03-23T12:27:31;9.35;;;2.75;;
22318;SDS011;11327;52.334;9.506;2024-03-23T12:30:52;7.08;;;2.20;;
22318;SDS011;11327;52.334;9.506;2024-03-23T12:34:14;4.55;;;1.77;;
22318;SDS011;11327;52.334;9.506;2024-03-23T12:37:35;5.67;;;1.40;;
22318;SDS011;11327;52.334;9.506;2024-03-23T12:40:55;2.67;;;1.00;;
22318;SDS011;11327;52.334;9.506;2024-03-23T12:44:16;3.52;;;1.00;;
22318;SDS011;11327;52.334;9.506;2024-03-23T12:47:37;2.42;;;1.10;;
22318;SDS011;11327;52.334;9.506;2024-03-23T12:50:58;4.83;;;1.35;;
22318;SDS011;11327;52.334;9.506;2024-03-23T12:54:18;1.95;;;1.20;;
22318;SDS011;11327;52.334;9.506;2024-03-23T12:57:39;2.90;;;1.40;;
22318;SDS011;11327;52.334;9.506;2024-03-23T13:01:01;4.65;;;1.40;;
22318;SDS011;11327;52.334;9.506;2024-03-23T13:04:22;4.53;;;1.40;;
22318;SDS011;11327;52.334;9.506;2024-03-23T13:07:43;4.92;;;1.87;;
22318;SDS011;11327;52.334;9.506;2024-03-23T13:11:04;5.70;;;1.67;;
22318;SDS011;11327;52.334;9.506;2024-03-23T13:14:24;4.15;;;1.80;;
22318;SDS011;11327;52.334;9.506;2024-03-23T13:17:45;3.75;;;1.47;;
22318;SDS011;11327;52.334;9.506;2024-03-23T13:21:06;3.15;;;1.30;;
22318;SDS011;11327;52.334;9.506;2024-03-23T13:24:27;2.47;;;1.22;;
22318;SDS011;11327;52.334;9.506;2024-03-23T13:27:48;3.35;;;1.35;;
22318;SDS011;11327;52.334;9.506;2024-03-23T13:31:09;3.77;;;1.40;;
22318;SDS011;11327;52.334;9.506;2024-03-23T13:34:30;5.00;;;1.62;;
22318;SDS011;11327;52.334;9.506;2024-03-23T13:37:51;3.40;;;1.40;;
22318;SDS011;11327;52.334;9.506;2024-03-23T13:41:11;2.98;;;1.30;;
22318;SDS011;11327;52.334;9.506;2024-03-23T13:44:32;4.33;;;1.45;;
22318;SDS011;11327;52.334;9.506;2024-03-23T13:47:53;5.53;;;1.55;;
22318;SDS011;11327;52.334;9.506;2024-03-23T13:51:14;4.03;;;1.50;;
22318;SDS011;11327;52.334;9.506;2024-03-23T13:54:35;3.27;;;1.50;;
22318;SDS011;11327;52.334;9.506;2024-03-23T13:57:56;2.83;;;1.22;;
22318;SDS011;11327;52.334;9.506;2024-03-23T14:01:16;2.62;;;1.50;;
22318;SDS011;11327;52.334;9.506;2024-03-23T14:04:37;4.15;;;1.65;;
22318;SDS011;11327;52.334;9.506;2024-03-23T14:07:58;4.08;;;2.00;;
22318;SDS011;11327;52.334;9.506;2024-03-23T14:11:19;2.95;;;1.55;;
22318;SDS011;11327;52.334;9.506;2024-03-23T14:14:40;2.55;;;1.15;;
22318;SDS011;11327;52.334;9.506;2024-03-23T14:18:01;3.45;;;1.07;;
22318;SDS011;11327;52.334;9.506;2024-03-23T14:21:22;2.95;;;0.72;;
22318;SDS011;11327;52.334;9.506;2024-03-23T14:24:43;2.72;;;0.70;;
22318;SDS011;11327;52.334;9.506;2024-03-23T14:28:04;0.95;;;0.50;;
22318;SDS011;11327;52.334;9.506;2024-03-23T14:31:24;2.75;;;0.40;;
22318;SDS011;11327;52.334;9.506;2024-03-23T14:34:45;0.53;;;0.25;;
22318;SDS011;11327;52.334;9.506;2024-03-23T14:38:07;1.17;;;0.53;;
22318;SDS011;11327;52.334;9.506;2024-03-23T14:41:28;2.00;;;0.80;;
22318;SDS011;11327;52.334;9.506;2024-03-23T14:44:49;1.90;;;0.68;;
22318;SDS011;11327;52.334;9.506;2024-03-23T14:48:10;2.22;;;0.57;;
22318;SDS011;11327;52.334;9.506;2024-03-23T14:51:31;2.22;;;0.70;;
22318;SDS011;11327;52.334;9.506;2024-03-23T14:54:53;2.17;;;0.65;;
22318;SDS011;11327;52.334;9.506;2024-03-23T14:58:16;3.37;;;0.80;;
22318;SDS011;11327;52.334;9.506;2024-03-23T15:01:37;3.47;;;1.00;;
22318;SDS011;11327;52.334;9.506;2024-03-23T15:04:58;2.80;;;1.00;;
22318;SDS011;11327;52.334;9.506;2024-03-23T15:08:19;3.17;;;1.22;;
22318;SDS011;11327;52.334;9.506;2024-03-23T15:11:40;3.33;;;1.32;;
22318;SDS011;11327;52.334;9.506;2024-03-23T15:15:01;4.50;;;1.37;;
22318;SDS011;11327;52.334;9.506;2024-03-23T15:18:21;4.40;;;1.42;;
22318;SDS011;11327;52.334;9.506;2024-03-23T15:21:48;4.72;;;1.50;;
22318;SDS011;11327;52.334;9.506;2024-03-23T15:25:09;6.28;;;1.80;;
22318;SDS011;11327;52.334;9.506;2024-03-23T15:28:30;4.25;;;1.80;;
22318;SDS011;11327;52.334;9.506;2024-03-23T15:32:02;4.25;;;1.82;;
22318;SDS011;11327;52.334;9.506;2024-03-23T15:35:23;4.42;;;0.98;;
22318;SDS011;11327;52.334;9.506;2024-03-23T15:38:44;2.05;;;0.78;;
22318;SDS011;11327;52.334;9.506;2024-03-23T15:42:05;3.90;;;0.98;;
22318;SDS011;11327;52.334;9.506;2024-03-23T15:45:27;4.47;;;1.22;;
22318;SDS011;11327;52.334;9.506;2024-03-23T15:48:48;4.05;;;1.10;;
22318;SDS011;11327;52.334;9.506;2024-03-23T15:52:09;4.37;;;1.40;;
22318;SDS011;11327;52.334;9.506;2024-03-23T15:55:31;2.80;;;1.20;;
22318;SDS011;11327;52.334;9.506;2024-03-23T15:58:54;2.27;;;1.40;;
22318;SDS011;11327;52.334;9.506;2024-03-23T16:02:14;4.30;;;1.45;;
22318;SDS011;11327;52.334;9.506;2024-03-23T16:05:36;4.25;;;2.12;;
22318;SDS011;11327;52.334;9.506;2024-03-23T16:08:57;4.95;;;1.98;;
22318;SDS011;11327;52.334;9.506;2024-03-23T16:12:17;2.67;;;1.20;;
22318;SDS011;11327;52.334;9.506;2024-03-23T16:15:38;3.67;;;0.90;;
22318;SDS011;11327;52.334;9.506;2024-03-23T16:18:59;3.52;;;1.50;;
22318;SDS011;11327;52.334;9.506;2024-03-23T16:22:20;2.60;;;1.07;;
22318;SDS011;11327;52.334;9.506;2024-03-23T16:25:46;2.00;;;1.17;;
22318;SDS011;11327;52.334;9.506;2024-03-23T16:29:10;4.80;;;1.20;;
22318;SDS011;11327;52.334;9.506;2024-03-23T16:32:31;4.15;;;1.15;;
22318;SDS011;11327;52.334;9.506;2024-03-23T16:39:21;3.42;;;1.42;;
22318;SDS011;11327;52.334;9.506;2024-03-23T16:42:42;6.42;;;1.72;;
22318;SDS011;11327;52.334;9.506;2024-03-23T16:46:03;5.35;;;1.75;;
22318;SDS011;11327;52.334;9.506;2024-03-23T16:49:25;3.70;;;1.60;;
22318;SDS011;11327;52.334;9.506;2024-03-23T16:52:46;3.02;;;1.60;;
22318;SDS011;11327;52.334;9.506;2024-03-23T16:56:07;4.35;;;1.42;;
22318;SDS011;11327;52.334;9.506;2024-03-23T16:59:28;3.22;;;1.12;;
22318;SDS011;11327;52.334;9.506;2024-03-23T17:02:49;6.47;;;2.02;;
22318;SDS011;11327;52.334;9.506;2024-03-23T17:06:10;12.40;;;6.42;;
22318;SDS011;11327;52.334;9.506;2024-03-23T17:09:33;27.22;;;14.10;;
22318;SDS011;11327;52.334;9.506;2024-03-23T17:12:53;16.70;;;8.95;;
22318;SDS011;11327;52.334;9.506;2024-03-23T17:16:14;15.63;;;7.30;;
22318;SDS011;11327;52.334;9.506;2024-03-23T17:19:36;18.80;;;10.18;;
22318;SDS011;11327;52.334;9.506;2024-03-23T17:22:57;10.82;;;6.00;;
22318;SDS011;11327;52.334;9.506;2024-03-23T17:26:18;11.53;;;7.53;;
22318;SDS011;11327;52.334;9.506;2024-03-23T17:29:40;6.95;;;4.10;;
22318;SDS011;11327;52.334;9.506;2024-03-23T17:33:01;4.78;;;2.17;;
22318;SDS011;11327;52.334;9.506;2024-03-23T17:36:22;3.83;;;2.25;;
22318;SDS011;11327;52.334;9.506;2024-03-23T17:39:45;5.17;;;2.87;;
22318;SDS011;11327;52.334;9.506;2024-03-23T17:43:06;4.65;;;2.70;;
22318;SDS011;11327;52.334;9.506;2024-03-23T17:46:26;4.67;;;2.17;;
22318;SDS011;11327;52.334;9.506;2024-03-23T17:49:47;5.37;;;2.65;;
22318;SDS011;11327;52.334;9.506;2024-03-23T17:53:08;4.87;;;2.25;;
22318;SDS011;11327;52.334;9.506;2024-03-23T17:56:29;4.08;;;2.95;;
22318;SDS011;11327;52.334;9.506;2024-03-23T17:59:50;5.22;;;2.67;;
22318;SDS011;11327;52.334;9.506;2024-03-23T18:03:11;5.92;;;2.55;;
22318;SDS011;11327;52.334;9.506;2024-03-23T18:06:32;5.03;;;2.67;;
22318;SDS011;11327;52.334;9.506;2024-03-23T18:09:53;3.10;;;1.52;;
22318;SDS011;11327;52.334;9.506;2024-03-23T18:13:13;5.10;;;1.37;;
22318;SDS011;11327;52.334;9.506;2024-03-23T18:16:34;3.67;;;1.55;;
22318;SDS011;11327;52.334;9.506;2024-03-23T18:19:55;4.50;;;1.57;;
22318;SDS011;11327;52.334;9.506;2024-03-23T18:23:16;4.17;;;2.10;;
22318;SDS011;11327;52.334;9.506;2024-03-23T18:26:38;4.90;;;1.95;;
22318;SDS011;11327;52.334;9.506;2024-03-23T18:29:58;5.10;;;2.05;;
22318;SDS011;11327;52.334;9.506;2024-03-23T18:33:19;5.47;;;2.47;;
22318;SDS011;11327;52.334;9.506;2024-03-23T18:36:40;4.08;;;2.70;;
22318;SDS011;11327;52.334;9.506;2024-03-23T18:40:01;2.08;;;1.40;;
22318;SDS011;11327;52.334;9.506;2024-03-23T18:43:21;3.25;;;1.90;;
22318;SDS011;11327;52.334;9.506;2024-03-23T18:46:42;2.85;;;1.62;;
22318;SDS011;11327;52.334;9.506;2024-03-23T18:50:03;3.22;;;1.70;;
22318;SDS011;11327;52.334;9.506;2024-03-23T18:53:24;2.05;;;1.10;;
22318;SDS011;11327;52.334;9.506;2024-03-23T18:56:45;3.85;;;1.20;;
22318;SDS011;11327;52.334;9.506;2024-03-23T19:00:06;5.10;;;1.67;;
22318;SDS011;11327;52.334;9.506;2024-03-23T19:03:29;3.62;;;1.17;;
22318;SDS011;11327;52.334;9.506;2024-03-23T19:06:50;3.17;;;1.50;;
22318;SDS011;11327;52.334;9.506;2024-03-23T19:10:11;3.22;;;1.20;;
22318;SDS011;11327;52.334;9.506;2024-03-23T19:13:31;4.55;;;1.60;;
22318;SDS011;11327;52.334;9.506;2024-03-23T19:16:52;6.62;;;2.37;;
22318;SDS011;11327;52.334;9.506;2024-03-23T19:20:14;5.90;;;1.87;;
22318;SDS011;11327;52.334;9.506;2024-03-23T19:23:35;2.83;;;1.42;;
22318;SDS011;11327;52.334;9.506;2024-03-23T19:26:55;3.65;;;2.62;;
22318;SDS011;11327;52.334;9.506;2024-03-23T19:30:16;6.75;;;2.80;;
22318;SDS011;11327;52.334;9.506;2024-03-23T19:33:37;5.05;;;2.80;;
22318;SDS011;11327;52.334;9.506;2024-03-23T19:36:58;4.58;;;2.47;;
22318;SDS011;11327;52.334;9.506;2024-03-23T19:40:19;8.58;;;3.65;;
22318;SDS011;11327;52.334;9.506;2024-03-23T19:43:40;6.40;;;2.30;;
22318;SDS011;11327;52.334;9.506;2024-03-23T19:47:01;5.60;;;2.85;;
22318;SDS011;11327;52.334;9.506;2024-03-23T19:50:22;6.05;;;3.77;;
22318;SDS011;11327;52.334;9.506;2024-03-23T19:53:43;8.08;;;2.60;;
22318;SDS011;11327;52.334;9.506;2024-03-23T19:57:04;4.97;;;2.22;;
22318;SDS011;11327;52.334;9.506;2024-03-23T20:00:25;4.47;;;2.42;;
22318;SDS011;11327;52.334;9.506;2024-03-23T20:03:45;5.78;;;2.17;;
22318;SDS011;11327;52.334;9.506;2024-03-23T20:07:07;5.58;;;2.00;;
22318;SDS011;11327;52.334;9.506;2024-03-23T20:10:28;4.97;;;2.00;;
22318;SDS011;11327;52.334;9.506;2024-03-23T20:13:49;6.42;;;2.10;;
22318;SDS011;11327;52.334;9.506;2024-03-23T20:17:10;3.20;;;2.08;;
22318;SDS011;11327;52.334;9.506;2024-03-23T20:20:31;5.00;;;1.95;;
22318;SDS011;11327;52.334;9.506;2024-03-23T20:23:51;5.75;;;2.42;;
22318;SDS011;11327;52.334;9.506;2024-03-23T20:27:12;5.72;;;3.30;;
22318;SDS011;11327;52.334;9.506;2024-03-23T20:30:33;7.53;;;2.77;;
22318;SDS011;11327;52.334;9.506;2024-03-23T20:33:54;5.85;;;2.40;;
22318;SDS011;11327;52.334;9.506;2024-03-23T20:37:16;5.40;;;2.55;;
22318;SDS011;11327;52.334;9.506;2024-03-23T20:40:37;4.87;;;2.15;;
22318;SDS011;11327;52.334;9.506;2024-03-23T20:43:58;5.03;;;2.50;;
22318;SDS011;11327;52.334;9.506;2024-03-23T20:47:18;4.58;;;2.15;;
22318;SDS011;11327;52.334;9.506;2024-03-23T20:50:39;5.87;;;2.10;;
22318;SDS011;11327;52.334;9.506;2024-03-23T20:54:00;5.83;;;2.35;;
22318;SDS011;11327;52.334;9.506;2024-03-23T20:57:21;4.37;;;1.90;;
22318;SDS011;11327;52.334;9.506;2024-03-23T21:00:41;5.28;;;2.65;;